Time;durP1;ratioP1;P1;durP2;ratioP2;P2;SDS_P1;SDS_P2;PMS_P1;PMS_P2;Temp;Humidity;BMP_temperature;BMP_pressure;BME280_temperature;BME280_humidity;BME280_pressure;Samples;Min_cycle;Max_cycle;Signal;HPM_P1;HPM_P2
2021/01/28 00:00:08;;;;;;;19.27;13.50;;;3.20;99.90;;;;;;5031072;28;20422;-64
2021/01/28 00:02:33;;;;;;;15.30;11.13;;;3.20;99.90;;;;;;5033087;28;20271;-64
2021/01/28 00:04:59;;;;;;;10.50;8.37;;;3.20;99.90;;;;;;5033058;28;20513;-66
2021/01/28 00:07:24;;;;;;;10.10;7.63;;;3.30;99.90;;;;;;5033027;28;20176;-66
2021/01/28 00:09:50;;;;;;;10.73;8.17;;;3.40;99.90;;;;;;5032943;28;20249;-65
2021/01/28 00:12:16;;;;;;;10.47;8.13;;;3.50;99.90;;;;;;5032831;28;20267;-64
2021/01/28 00:14:41;;;;;;;10.67;8.80;;;3.60;99.90;;;;;;5032994;28;20638;-64
2021/01/28 00:17:07;;;;;;;10.93;8.93;;;3.60;99.90;;;;;;5032784;28;20178;-64
2021/01/28 00:19:32;;;;;;;15.33;11.57;;;3.50;99.90;;;;;;5032907;28;20187;-64
2021/01/28 00:21:58;;;;;;;14.57;11.60;;;3.50;99.90;;;;;;5032709;28;20186;-66
2021/01/28 00:24:23;;;;;;;13.90;10.03;;;3.50;99.90;;;;;;5032870;28;20190;-67
2021/01/28 00:26:49;;;;;;;11.77;9.43;;;3.50;99.90;;;;;;5032707;28;20531;-65
2021/01/28 00:29:15;;;;;;;11.33;9.17;;;3.50;99.90;;;;;;5032615;28;20188;-66
2021/01/28 00:31:40;;;;;;;12.03;9.13;;;3.50;99.90;;;;;;5028832;28;20184;-64
2021/01/28 00:34:06;;;;;;;10.80;8.50;;;3.50;99.90;;;;;;5030790;28;20206;-64
2021/01/28 00:36:32;;;;;;;14.23;10.37;;;3.50;99.90;;;;;;5032461;28;20255;-66
2021/01/28 00:38:57;;;;;;;19.63;12.87;;;3.60;99.90;;;;;;5032502;28;20190;-64
2021/01/28 00:41:23;;;;;;;16.50;12.33;;;3.60;99.90;;;;;;5032430;28;20179;-66
2021/01/28 00:43:48;;;;;;;18.77;13.43;;;3.60;99.90;;;;;;5032502;28;20539;-66
2021/01/28 00:46:14;;;;;;;18.07;12.90;;;3.50;99.90;;;;;;5032270;28;20212;-64
2021/01/28 00:48:41;;;;;;;19.53;12.70;;;3.40;99.90;;;;;;5027043;28;20263;-65
2021/01/28 00:51:07;;;;;;;19.47;13.47;;;3.50;99.90;;;;;;5030452;28;20223;-64
2021/01/28 00:53:33;;;;;;;18.83;13.40;;;3.40;99.90;;;;;;5032433;28;20530;-66
2021/01/28 00:55:59;;;;;;;18.67;14.03;;;3.40;99.90;;;;;;5031394;28;20505;-65
2021/01/28 00:58:26;;;;;;;21.20;14.57;;;3.40;99.90;;;;;;5032270;28;20688;-65
2021/01/28 01:00:51;;;;;;;18.77;14.33;;;3.40;99.90;;;;;;5031835;28;20218;-67
2021/01/28 01:03:21;;;;;;;20.37;14.83;;;3.40;99.90;;;;;;5032138;28;20423;-64
2021/01/28 01:05:48;;;;;;;19.30;14.73;;;3.40;99.90;;;;;;5031994;28;20183;-66
2021/01/28 01:08:17;;;;;;;20.03;13.20;;;3.40;99.90;;;;;;5031810;28;20416;-63
2021/01/28 01:10:46;;;;;;;17.07;12.07;;;3.40;99.90;;;;;;5032079;28;20973;-63
2021/01/28 01:13:15;;;;;;;19.10;11.97;;;3.40;99.90;;;;;;5031616;28;20469;-66
2021/01/28 01:15:41;;;;;;;20.00;13.77;;;3.40;99.90;;;;;;5031821;28;20936;-66
2021/01/28 01:18:09;;;;;;;17.67;12.57;;;3.40;99.90;;;;;;5031976;28;20457;-63
2021/01/28 01:20:35;;;;;;;15.53;12.00;;;3.40;99.90;;;;;;5031693;28;20270;-69
2021/01/28 01:23:01;;;;;;;16.73;11.67;;;3.30;99.90;;;;;;5032076;28;20518;-64
2021/01/28 01:25:26;;;;;;;16.83;12.20;;;3.40;99.90;;;;;;5031504;28;20638;-65
2021/01/28 01:27:52;;;;;;;16.03;11.13;;;3.40;99.90;;;;;;5031761;28;20187;-63
2021/01/28 01:30:20;;;;;;;17.33;10.87;;;3.30;99.90;;;;;;5025266;28;20250;-66
2021/01/28 01:32:46;;;;;;;18.47;11.70;;;3.40;99.90;;;;;;5031419;28;20201;-63
2021/01/28 01:35:14;;;;;;;16.83;10.97;;;3.40;99.90;;;;;;5031371;28;20908;-67
2021/01/28 01:37:40;;;;;;;16.33;11.30;;;3.40;99.90;;;;;;5031361;28;20238;-63
2021/01/28 01:40:08;;;;;;;18.97;12.43;;;3.40;99.90;;;;;;5031376;28;20489;-63
2021/01/28 01:42:34;;;;;;;16.57;12.30;;;3.40;99.90;;;;;;5031392;28;20171;-66
2021/01/28 01:45:01;;;;;;;18.50;13.03;;;3.40;99.90;;;;;;5026534;28;20416;-64
2021/01/28 01:47:49;;;;;;;17.40;12.70;;;3.40;99.90;;;;;;5031285;28;20175;-63
2021/01/28 01:50:56;;;;;;;16.83;12.30;;;3.40;99.90;;;;;;5025313;28;20490;-67
2021/01/28 01:53:34;;;;;;;16.43;12.00;;;3.30;99.90;;;;;;4986994;28;20461;-66
2021/01/28 01:56:10;;;;;;;15.57;11.60;;;3.40;99.90;;;;;;5011484;28;20573;-64
2021/01/28 01:58:50;;;;;;;18.20;11.80;;;3.30;99.90;;;;;;5011707;28;20921;-64
2021/01/28 02:01:19;;;;;;;15.63;11.00;;;3.30;99.90;;;;;;5011437;28;20443;-64
2021/01/28 02:03:44;;;;;;;13.63;10.07;;;3.30;99.90;;;;;;5010434;28;20407;-64
2021/01/28 02:06:30;;;;;;;14.20;10.80;;;3.30;99.90;;;;;;5011281;28;20419;-64
2021/01/28 02:08:57;;;;;;;13.80;10.27;;;3.30;99.90;;;;;;5011110;28;20208;-65
2021/01/28 02:11:25;;;;;;;13.00;10.30;;;3.30;99.90;;;;;;5011466;28;20939;-63
2021/01/28 02:13:53;;;;;;;11.73;9.43;;;3.40;99.90;;;;;;5010860;28;20423;-65
2021/01/28 02:16:22;;;;;;;13.47;9.20;;;3.40;99.90;;;;;;5011101;28;20529;-65
2021/01/28 02:18:48;;;;;;;9.20;7.47;;;3.40;99.90;;;;;;5011205;28;20850;-67
2021/01/28 02:21:34;;;;;;;11.00;7.97;;;3.50;99.90;;;;;;5011119;28;20817;-67
2021/01/28 02:24:15;;;;;;;10.20;7.90;;;3.50;99.90;;;;;;5011228;28;20427;-65
2021/01/28 02:26:43;;;;;;;9.17;6.97;;;3.60;99.90;;;;;;5011259;28;20466;-65
2021/01/28 02:29:09;;;;;;;9.03;7.40;;;3.60;99.90;;;;;;5010835;28;20459;-66
2021/01/28 02:31:36;;;;;;;8.83;7.40;;;3.50;99.90;;;;;;5011434;28;20929;-65
2021/01/28 02:34:04;;;;;;;8.30;6.73;;;3.50;99.90;;;;;;5011096;28;20176;-65
2021/01/28 02:36:38;;;;;;;7.50;6.43;;;3.60;99.90;;;;;;5010880;28;20423;-63
2021/01/28 02:39:08;;;;;;;6.87;5.40;;;3.70;99.90;;;;;;5011226;28;20423;-66
2021/01/28 02:41:34;;;;;;;7.43;6.33;;;3.80;99.90;;;;;;5010899;28;20427;-66
2021/01/28 02:44:00;;;;;;;8.83;7.47;;;3.80;99.90;;;;;;5011067;28;20424;-67
2021/01/28 02:46:27;;;;;;;8.77;7.10;;;3.80;99.90;;;;;;5010715;28;20430;-63
2021/01/28 02:48:53;;;;;;;9.77;6.90;;;3.70;99.90;;;;;;5010951;28;20491;-64
2021/01/28 02:51:19;;;;;;;7.87;6.53;;;3.70;99.90;;;;;;5011019;28;20426;-65
2021/01/28 02:53:48;;;;;;;8.30;7.03;;;3.70;99.90;;;;;;5013117;28;20448;-67
2021/01/28 02:56:14;;;;;;;8.43;6.77;;;3.70;99.90;;;;;;5030435;28;20999;-63
2021/01/28 02:58:39;;;;;;;8.13;6.70;;;3.70;99.90;;;;;;5030508;28;20411;-65
2021/01/28 03:01:06;;;;;;;10.43;8.10;;;3.70;99.90;;;;;;5030664;28;20669;-66
2021/01/28 03:03:32;;;;;;;9.37;7.23;;;3.80;99.90;;;;;;5030185;28;20563;-64
2021/01/28 03:05:58;;;;;;;10.00;8.00;;;3.80;99.90;;;;;;5030588;28;20442;-67
2021/01/28 03:08:25;;;;;;;10.00;8.90;;;3.90;99.90;;;;;;5030580;28;20644;-65
2021/01/28 03:10:51;;;;;;;11.83;9.00;;;3.90;99.90;;;;;;5030207;28;20207;-65
2021/01/28 03:13:17;;;;;;;10.17;9.07;;;3.90;99.90;;;;;;5030637;28;20426;-64
2021/01/28 03:15:43;;;;;;;10.10;8.83;;;3.80;99.90;;;;;;5030151;28;20410;-62
2021/01/28 03:18:09;;;;;;;10.97;8.70;;;4.00;99.90;;;;;;5030449;28;20183;-65
2021/01/28 03:20:37;;;;;;;12.30;9.50;;;4.00;99.90;;;;;;5030601;28;20418;-66
2021/01/28 03:23:03;;;;;;;10.97;9.57;;;4.00;99.90;;;;;;5029004;28;20915;-67
2021/01/28 03:25:28;;;;;;;12.40;9.90;;;4.00;99.90;;;;;;5032881;28;20506;-65
2021/01/28 03:27:54;;;;;;;11.90;8.73;;;4.00;99.90;;;;;;5033446;28;20266;-67
2021/01/28 03:30:28;;;;;;;12.90;10.17;;;4.00;99.90;;;;;;5033769;28;20204;-63
2021/01/28 03:32:55;;;;;;;16.97;12.40;;;4.00;99.90;;;;;;5033495;28;20422;-65
2021/01/28 03:35:22;;;;;;;15.77;11.70;;;4.10;99.90;;;;;;5033987;28;20497;-63
2021/01/28 03:37:48;;;;;;;12.87;9.63;;;4.00;99.90;;;;;;5033248;28;20900;-66
2021/01/28 03:40:15;;;;;;;15.30;12.23;;;4.00;99.90;;;;;;5033902;28;20458;-64
2021/01/28 03:42:41;;;;;;;16.47;13.17;;;4.00;99.90;;;;;;5033601;28;20278;-66
2021/01/28 03:45:08;;;;;;;15.63;12.17;;;3.90;99.90;;;;;;5033710;28;20976;-63
2021/01/28 03:47:34;;;;;;;18.20;13.43;;;4.00;99.90;;;;;;5033566;28;20186;-65
2021/01/28 03:50:00;;;;;;;14.43;12.00;;;4.00;99.90;;;;;;5032297;28;20450;-64
2021/01/28 03:52:25;;;;;;;14.17;10.97;;;4.00;99.90;;;;;;5033369;28;20422;-65
2021/01/28 03:54:51;;;;;;;13.57;10.60;;;4.00;99.90;;;;;;5033868;28;20250;-64
2021/01/28 03:57:16;;;;;;;13.23;10.33;;;4.00;99.90;;;;;;5033216;28;20180;-67
2021/01/28 03:59:42;;;;;;;14.03;10.57;;;4.10;99.90;;;;;;5033423;28;20180;-64
2021/01/28 04:02:08;;;;;;;14.27;10.70;;;4.00;99.90;;;;;;5033190;28;20590;-67
2021/01/28 04:04:33;;;;;;;11.07;8.93;;;4.00;99.90;;;;;;5033242;28;20182;-64
2021/01/28 04:06:59;;;;;;;10.43;8.93;;;4.10;99.90;;;;;;5032930;28;20187;-68
2021/01/28 04:09:24;;;;;;;10.50;8.43;;;4.00;99.90;;;;;;5032807;28;20204;-63
2021/01/28 04:11:50;;;;;;;10.33;8.53;;;4.00;99.90;;;;;;5032944;28;20184;-65
2021/01/28 04:14:16;;;;;;;11.87;8.70;;;4.00;99.90;;;;;;5033088;28;20183;-64
2021/01/28 04:16:42;;;;;;;10.53;9.43;;;4.00;99.90;;;;;;5015518;28;20187;-63
2021/01/28 04:19:07;;;;;;;10.87;9.00;;;4.10;99.90;;;;;;5032890;28;20184;-63
2021/01/28 04:21:34;;;;;;;10.33;9.17;;;4.00;99.90;;;;;;5032597;28;20294;-66
2021/01/28 04:24:00;;;;;;;12.07;9.17;;;4.00;99.90;;;;;;5032974;28;20210;-66
2021/01/28 04:26:26;;;;;;;11.30;9.03;;;4.10;99.90;;;;;;5032788;28;20904;-66
2021/01/28 04:28:52;;;;;;;10.60;9.10;;;4.10;99.90;;;;;;5032430;28;20186;-66
2021/01/28 04:31:18;;;;;;;10.27;8.90;;;4.00;99.90;;;;;;5032605;28;20822;-65
2021/01/28 04:33:43;;;;;;;12.97;10.60;;;4.00;99.90;;;;;;5032239;28;20423;-64
2021/01/28 04:36:09;;;;;;;13.33;10.13;;;4.00;99.90;;;;;;5032364;28;20414;-63
2021/01/28 04:38:35;;;;;;;12.40;9.33;;;4.10;99.90;;;;;;5032490;28;20698;-65
2021/01/28 04:41:16;;;;;;;12.37;9.30;;;4.20;99.90;;;;;;5014673;28;20183;-62
2021/01/28 04:43:42;;;;;;;13.33;10.33;;;4.30;99.90;;;;;;5032376;28;20183;-66
2021/01/28 04:46:12;;;;;;;13.17;10.60;;;4.30;99.90;;;;;;5032315;28;20418;-65
2021/01/28 04:48:38;;;;;;;15.27;11.97;;;4.30;99.90;;;;;;5031178;28;20172;-64
2021/01/28 04:51:05;;;;;;;17.23;12.23;;;4.30;99.90;;;;;;5032134;28;20476;-66
2021/01/28 04:53:53;;;;;;;16.00;12.47;;;4.30;99.90;;;;;;5013419;28;20631;-65
2021/01/28 04:56:23;;;;;;;16.57;12.63;;;4.30;99.90;;;;;;5032078;28;20418;-66
2021/01/28 04:58:52;;;;;;;15.00;11.43;;;4.30;99.90;;;;;;5032134;28;20433;-66
2021/01/28 05:01:19;;;;;;;19.03;14.57;;;4.30;99.90;;;;;;5032097;28;20426;-63
2021/01/28 05:03:52;;;;;;;16.10;11.33;;;4.30;99.90;;;;;;5032059;28;20465;-66
2021/01/28 05:06:17;;;;;;;19.93;14.60;;;4.30;99.90;;;;;;5032038;28;20503;-64
2021/01/28 05:08:43;;;;;;;19.80;15.20;;;4.20;99.90;;;;;;5032097;28;20514;-65
2021/01/28 05:11:31;;;;;;;21.10;15.17;;;4.30;99.90;;;;;;5031599;28;20575;-66
2021/01/28 05:14:18;;;;;;;17.63;13.60;;;4.20;99.90;;;;;;5031702;28;20234;-63
2021/01/28 05:16:52;;;;;;;15.40;11.00;;;4.30;99.90;;;;;;5030707;28;20940;-66
2021/01/28 05:19:30;;;;;;;18.40;14.40;;;4.30;99.90;;;;;;5031606;28;20418;-67
2021/01/28 05:22:19;;;;;;;19.23;14.20;;;4.20;99.90;;;;;;5031509;28;20997;-64
2021/01/28 05:24:49;;;;;;;18.03;13.47;;;4.30;99.90;;;;;;5031804;28;20427;-65
2021/01/28 05:27:23;;;;;;;17.63;13.37;;;4.30;99.90;;;;;;5030853;28;20473;-66
2021/01/28 05:29:51;;;;;;;19.10;15.57;;;4.30;99.90;;;;;;5031385;28;20508;-64
2021/01/28 05:32:48;;;;;;;19.50;14.30;;;4.30;99.90;;;;;;5031868;28;20494;-64
2021/01/28 05:35:28;;;;;;;19.17;14.97;;;4.30;99.90;;;;;;5031491;28;20418;-65
2021/01/28 05:38:11;;;;;;;18.57;13.87;;;4.30;99.90;;;;;;5031112;28;20402;-67
2021/01/28 05:40:38;;;;;;;19.13;15.00;;;4.30;99.90;;;;;;5031251;28;20784;-67
2021/01/28 05:43:30;;;;;;;24.10;14.17;;;4.20;99.90;;;;;;5030939;28;20415;-64
2021/01/28 05:46:12;;;;;;;18.63;13.67;;;4.20;99.90;;;;;;5031350;28;20904;-67
2021/01/28 05:48:58;;;;;;;18.17;13.13;;;4.20;99.90;;;;;;5030461;28;20418;-66
2021/01/28 05:51:24;;;;;;;18.77;13.90;;;4.20;99.90;;;;;;5030878;28;20414;-64
2021/01/28 05:53:56;;;;;;;20.07;13.13;;;4.30;99.90;;;;;;5031217;28;20426;-66
2021/01/28 05:56:22;;;;;;;17.43;12.87;;;4.20;99.90;;;;;;5030129;28;20203;-64
2021/01/28 05:59:04;;;;;;;13.37;9.90;;;4.30;99.90;;;;;;5031116;28;20498;-62
2021/01/28 06:01:51;;;;;;;18.00;12.97;;;4.30;99.90;;;;;;5031029;28;20755;-63
2021/01/28 06:04:29;;;;;;;16.70;13.13;;;4.30;99.90;;;;;;5013464;28;20952;-62
2021/01/28 06:07:19;;;;;;;15.70;12.70;;;4.30;99.90;;;;;;5031083;28;20980;-65
2021/01/28 06:10:22;;;;;;;14.27;11.47;;;4.30;99.90;;;;;;5031021;28;20846;-62
2021/01/28 06:13:12;;;;;;;15.63;11.57;;;4.30;99.90;;;;;;5030954;28;20402;-66
2021/01/28 06:15:57;;;;;;;7.43;5.80;;;4.30;99.90;;;;;;5030985;28;20417;-65
2021/01/28 06:18:45;;;;;;;14.77;12.20;;;4.40;99.90;;;;;;5030494;28;20414;-65
2021/01/28 06:21:33;;;;;;;14.67;11.77;;;4.40;99.90;;;;;;5030840;28;20776;-64
2021/01/28 06:24:11;;;;;;;12.60;9.57;;;4.40;99.90;;;;;;5030053;28;20413;-63
2021/01/28 06:27:07;;;;;;;15.87;11.30;;;4.40;99.90;;;;;;5030745;28;20453;-62
2021/01/28 06:29:45;;;;;;;14.50;10.37;;;4.40;99.90;;;;;;4997566;28;20837;-65
2021/01/28 06:32:27;;;;;;;12.90;8.93;;;4.40;99.90;;;;;;5031188;28;20951;-63
2021/01/28 06:35:26;;;;;;;14.63;10.87;;;4.40;99.90;;;;;;5030826;28;20449;-64
2021/01/28 06:38:00;;;;;;;9.00;6.20;;;4.40;99.90;;;;;;5030803;28;20419;-62
2021/01/28 06:40:30;;;;;;;12.33;10.40;;;4.40;99.90;;;;;;5030505;28;20451;-64
2021/01/28 06:43:06;;;;;;;13.67;9.67;;;4.40;99.90;;;;;;5027890;28;20411;-63
2021/01/28 06:45:34;;;;;;;16.53;11.20;;;4.50;99.90;;;;;;5030742;28;20426;-62
2021/01/28 06:48:12;;;;;;;13.73;10.57;;;4.50;99.90;;;;;;5030713;28;20425;-65
2021/01/28 06:51:06;;;;;;;14.70;11.53;;;4.50;99.90;;;;;;5030465;28;20480;-62
2021/01/28 06:53:53;;;;;;;14.43;10.83;;;4.50;99.90;;;;;;5030249;28;20414;-67
2021/01/28 06:56:42;;;;;;;12.67;9.87;;;4.50;99.90;;;;;;5031400;28;20833;-64
2021/01/28 06:59:37;;;;;;;13.00;10.07;;;4.50;99.90;;;;;;5032568;28;20468;-67
2021/01/28 07:02:09;;;;;;;12.77;8.63;;;4.60;99.90;;;;;;5034287;28;20472;-66
2021/01/28 07:04:41;;;;;;;10.77;8.90;;;4.60;99.90;;;;;;5033234;28;20930;-65
2021/01/28 07:07:23;;;;;;;13.43;8.77;;;4.70;99.90;;;;;;5034188;28;20441;-64
2021/01/28 07:10:24;;;;;;;9.70;7.97;;;4.70;99.90;;;;;;5034072;28;20516;-63
2021/01/28 07:12:52;;;;;;;9.83;7.33;;;4.60;99.90;;;;;;5002200;28;20757;-63
2021/01/28 07:15:26;;;;;;;7.00;6.30;;;4.70;99.90;;;;;;5033898;28;20417;-67
2021/01/28 07:17:57;;;;;;;7.03;5.77;;;4.80;99.90;;;;;;5034177;28;20419;-64
2021/01/28 07:20:36;;;;;;;6.53;5.60;;;4.90;99.90;;;;;;5034100;28;20433;-66
2021/01/28 07:23:37;;;;;;;10.13;6.53;;;4.90;99.90;;;;;;5033684;28;20472;-63
2021/01/28 07:26:23;;;;;;;6.07;4.50;;;5.00;99.90;;;;;;4981750;28;20989;-65
2021/01/28 07:28:49;;;;;;;5.80;4.87;;;5.00;99.90;;;;;;5033642;28;20819;-63
2021/01/28 07:31:43;;;;;;;3.23;2.83;;;5.00;99.90;;;;;;5033372;28;20426;-65
2021/01/28 07:34:15;;;;;;;4.70;3.37;;;5.00;99.90;;;;;;5033763;28;20675;-65
2021/01/28 07:36:47;;;;;;;5.43;4.50;;;5.00;99.90;;;;;;5033676;28;20542;-68
2021/01/28 07:39:31;;;;;;;3.90;3.50;;;5.10;99.90;;;;;;5033498;28;20765;-62
2021/01/28 07:42:11;;;;;;;3.50;2.83;;;5.10;99.90;;;;;;5033526;28;20487;-63
2021/01/28 07:44:40;;;;;;;3.77;3.33;;;5.10;99.90;;;;;;5033830;28;20967;-64
2021/01/28 07:47:14;;;;;;;4.67;3.33;;;5.10;99.90;;;;;;5033371;28;20530;-63
2021/01/28 07:50:07;;;;;;;3.47;3.00;;;5.10;99.90;;;;;;5033463;28;20858;-63
2021/01/28 07:52:39;;;;;;;4.57;3.20;;;5.10;99.90;;;;;;5033409;28;20458;-64
2021/01/28 07:55:25;;;;;;;2.43;2.10;;;5.10;99.90;;;;;;5033621;28;20532;-64
2021/01/28 07:57:51;;;;;;;4.57;3.53;;;5.20;99.90;;;;;;5033195;28;20770;-63
2021/01/28 08:00:18;;;;;;;3.23;2.90;;;5.10;99.90;;;;;;5033177;28;20484;-63
2021/01/28 08:02:58;;;;;;;3.57;2.87;;;5.10;99.90;;;;;;5015249;28;20567;-66
2021/01/28 08:05:24;;;;;;;3.10;2.47;;;5.10;99.90;;;;;;5033107;28;20504;-66
2021/01/28 08:08:06;;;;;;;2.80;2.50;;;5.20;99.90;;;;;;5032637;28;20478;-62
2021/01/28 08:10:40;;;;;;;3.30;2.60;;;5.10;99.90;;;;;;5031974;28;20230;-65
2021/01/28 08:13:23;;;;;;;2.80;2.47;;;5.20;99.90;;;;;;5032907;28;20904;-66
2021/01/28 08:15:55;;;;;;;2.13;1.93;;;5.30;99.90;;;;;;5033127;28;20521;-64
2021/01/28 08:18:31;;;;;;;4.43;2.70;;;5.30;99.90;;;;;;5032755;28;20426;-65
2021/01/28 08:21:08;;;;;;;3.27;2.97;;;5.30;99.90;;;;;;5032914;28;20445;-65
2021/01/28 08:23:36;;;;;;;4.13;3.17;;;5.20;99.90;;;;;;5032552;28;20429;-65
2021/01/28 08:26:13;;;;;;;3.10;2.80;;;5.20;99.90;;;;;;5032565;28;20410;-62
2021/01/28 08:28:41;;;;;;;4.03;2.37;;;5.30;99.90;;;;;;5032587;28;20980;-65
2021/01/28 08:31:31;;;;;;;4.53;3.80;;;5.30;99.90;;;;;;5032677;28;20771;-63
2021/01/28 08:34:03;;;;;;;3.27;2.80;;;5.30;99.90;;;;;;5032489;28;20430;-65
2021/01/28 08:36:45;;;;;;;3.00;2.70;;;5.30;99.90;;;;;;5014633;28;20426;-64
2021/01/28 08:39:19;;;;;;;3.20;2.90;;;5.30;99.90;;;;;;5031138;28;20415;-66
2021/01/28 08:41:46;;;;;;;2.07;1.87;;;5.30;99.90;;;;;;5032295;28;20418;-64
2021/01/28 08:44:16;;;;;;;3.27;2.97;;;5.40;99.90;;;;;;5032240;28;20477;-65
2021/01/28 08:46:44;;;;;;;3.57;2.70;;;5.40;99.90;;;;;;5032202;28;20426;-64
2021/01/28 08:49:16;;;;;;;1.73;1.60;;;5.40;99.90;;;;;;5032315;28;20850;-65
2021/01/28 08:51:44;;;;;;;3.07;2.47;;;5.50;99.90;;;;;;5032243;28;20435;-66
2021/01/28 08:54:17;;;;;;;2.37;2.13;;;5.50;99.90;;;;;;5032075;28;20498;-67
2021/01/28 08:56:43;;;;;;;2.87;2.17;;;5.50;99.90;;;;;;5031388;28;20439;-66
2021/01/28 08:59:14;;;;;;;1.77;1.57;;;5.60;99.90;;;;;;5031828;28;21011;-66
2021/01/28 09:01:44;;;;;;;2.73;2.30;;;5.60;99.90;;;;;;5032109;28;20421;-64
2021/01/28 09:04:39;;;;;;;1.60;1.50;;;5.60;99.90;;;;;;5032147;28;20423;-66
2021/01/28 09:07:05;;;;;;;2.57;2.30;;;5.60;99.90;;;;;;5029950;28;20438;-63
2021/01/28 09:09:40;;;;;;;3.90;2.40;;;5.60;99.90;;;;;;5031865;28;20759;-64
2021/01/28 09:12:27;;;;;;;2.70;2.23;;;5.60;99.90;;;;;;5031595;28;20183;-64
2021/01/28 09:15:10;;;;;;;2.40;2.10;;;5.70;99.90;;;;;;5030327;28;20425;-65
2021/01/28 09:17:36;;;;;;;2.57;2.37;;;5.70;99.90;;;;;;5031827;28;20407;-66
2021/01/28 09:20:05;;;;;;;4.70;2.90;;;5.70;99.90;;;;;;5031789;28;20419;-67
2021/01/28 09:22:39;;;;;;;2.90;2.60;;;5.80;99.90;;;;;;5032075;28;20429;-64
2021/01/28 09:25:21;;;;;;;3.90;3.33;;;5.80;99.90;;;;;;5031746;28;20415;-66
2021/01/28 09:28:15;;;;;;;4.10;3.60;;;5.80;99.90;;;;;;5031578;28;20418;-67
2021/01/28 09:30:43;;;;;;;2.20;2.00;;;5.80;99.90;;;;;;5022101;28;20465;-66
2021/01/28 09:33:41;;;;;;;7.07;3.80;;;5.80;99.90;;;;;;5031414;28;20422;-66
2021/01/28 09:36:20;;;;;;;5.03;3.60;;;5.80;99.90;;;;;;4977339;28;20480;-67
2021/01/28 09:39:04;;;;;;;5.30;4.33;;;5.90;99.90;;;;;;5031127;28;20421;-65
2021/01/28 09:41:40;;;;;;;5.07;3.33;;;5.90;99.90;;;;;;5031211;28;20460;-67
2021/01/28 09:44:36;;;;;;;5.03;4.07;;;5.90;99.90;;;;;;5030500;28;20461;-67
2021/01/28 09:47:08;;;;;;;5.53;4.13;;;5.90;99.90;;;;;;5031042;28;21006;-64
2021/01/28 09:49:34;;;;;;;5.50;4.30;;;6.00;99.90;;;;;;5031051;28;20977;-66
2021/01/28 09:52:29;;;;;;;6.00;4.33;;;6.00;99.90;;;;;;5031212;28;20835;-65
2021/01/28 09:55:30;;;;;;;6.40;4.63;;;6.00;99.90;;;;;;5031695;28;20475;-68
2021/01/28 09:57:56;;;;;;;4.60;3.60;;;6.00;99.90;;;;;;5031052;28;20501;-66
2021/01/28 10:00:23;;;;;;;4.77;3.73;;;6.00;99.90;;;;;;5031025;28;20410;-66
2021/01/28 10:03:00;;;;;;;6.17;4.57;;;6.00;99.90;;;;;;5030971;28;20439;-65
2021/01/28 10:05:31;;;;;;;5.33;3.80;;;6.10;99.90;;;;;;5031041;28;20421;-66
2021/01/28 10:07:58;;;;;;;4.07;3.60;;;6.10;99.90;;;;;;5030988;28;20415;-65
2021/01/28 10:10:32;;;;;;;3.80;3.40;;;6.10;99.90;;;;;;5030794;28;20454;-66
2021/01/28 10:13:04;;;;;;;4.63;3.70;;;6.20;99.90;;;;;;5030798;28;20421;-66
2021/01/28 10:15:30;;;;;;;4.07;3.30;;;6.20;99.90;;;;;;5030898;28;20406;-64
2021/01/28 10:17:56;;;;;;;4.30;3.13;;;6.20;99.90;;;;;;5030922;28;20417;-66
2021/01/28 10:20:23;;;;;;;3.53;3.23;;;6.20;99.90;;;;;;5030650;28;20175;-63
2021/01/28 10:22:50;;;;;;;4.67;3.10;;;6.30;99.90;;;;;;5030573;28;20438;-66
2021/01/28 10:25:18;;;;;;;3.37;2.97;;;6.30;99.90;;;;;;5031114;28;20912;-64
2021/01/28 10:27:44;;;;;;;2.90;2.60;;;6.30;99.90;;;;;;5030689;28;20916;-67
2021/01/28 10:30:11;;;;;;;2.83;1.60;;;6.30;99.90;;;;;;5030558;28;20454;-67
2021/01/28 10:32:37;;;;;;;2.70;2.50;;;6.30;99.90;;;;;;5030622;28;20414;-66
2021/01/28 10:35:06;;;;;;;6.03;2.57;;;6.30;99.90;;;;;;5034300;28;20490;-64
2021/01/28 10:37:31;;;;;;;2.30;1.60;;;6.30;99.90;;;;;;5034928;28;20777;-64
2021/01/28 10:39:57;;;;;;;3.33;2.37;;;6.20;99.90;;;;;;5034621;28;20414;-64
2021/01/28 10:42:32;;;;;;;2.03;1.83;;;6.20;99.90;;;;;;5034640;28;20184;-64
2021/01/28 10:44:58;;;;;;;3.47;3.10;;;6.20;99.90;;;;;;5034549;28;20187;-67
2021/01/28 10:47:24;;;;;;;1.80;1.47;;;6.10;99.90;;;;;;5034544;28;20422;-65
2021/01/28 10:49:49;;;;;;;2.57;2.03;;;6.10;99.90;;;;;;5034504;28;20511;-65
2021/01/28 10:52:15;;;;;;;4.10;2.07;;;6.10;99.90;;;;;;5034457;28;20183;-64
2021/01/28 10:54:47;;;;;;;4.40;4.00;;;6.10;99.90;;;;;;5035092;28;20174;-66
2021/01/28 10:57:13;;;;;;;4.30;3.90;;;6.20;99.90;;;;;;5034332;28;20234;-64
2021/01/28 10:59:39;;;;;;;6.13;4.70;;;6.20;99.90;;;;;;5033131;28;20890;-66
2021/01/28 11:02:05;;;;;;;4.70;4.00;;;6.20;99.90;;;;;;5034488;28;20534;-66
2021/01/28 11:04:30;;;;;;;6.50;5.53;;;6.30;99.90;;;;;;5034150;28;20510;-65
2021/01/28 11:06:56;;;;;;;5.53;4.53;;;6.30;99.90;;;;;;5034310;28;20430;-67
2021/01/28 11:09:22;;;;;;;5.97;5.17;;;6.50;99.90;;;;;;5033820;28;20199;-67
2021/01/28 11:11:47;;;;;;;6.50;5.63;;;6.50;99.90;;;;;;5034287;28;20178;-65
2021/01/28 11:14:13;;;;;;;6.90;5.37;;;6.60;99.90;;;;;;5034141;28;20267;-64
2021/01/28 11:16:39;;;;;;;4.83;4.33;;;6.70;99.90;;;;;;5033870;28;20183;-65
2021/01/28 11:19:07;;;;;;;4.90;4.37;;;6.70;99.90;;;;;;5034364;28;20180;-67
2021/01/28 11:21:33;;;;;;;6.03;4.43;;;6.70;99.90;;;;;;5033718;28;20187;-64
2021/01/28 11:23:59;;;;;;;3.70;2.27;;;6.70;99.90;;;;;;5034138;28;20415;-68
2021/01/28 11:26:25;;;;;;;7.53;5.60;;;6.70;99.90;;;;;;5034075;28;20172;-66
2021/01/28 11:28:50;;;;;;;5.37;4.27;;;6.70;99.90;;;;;;5033851;28;20171;-68
2021/01/28 11:31:16;;;;;;;4.40;3.43;;;6.80;99.90;;;;;;5033765;28;20234;-63
2021/01/28 11:33:41;;;;;;;3.37;2.57;;;6.90;99.90;;;;;;5033468;28;20176;-64
2021/01/28 11:36:07;;;;;;;6.67;5.30;;;7.00;99.90;;;;;;5033926;28;20520;-68
2021/01/28 11:38:33;;;;;;;7.20;5.30;;;7.00;99.90;;;;;;5033515;28;20698;-65
2021/01/28 11:40:59;;;;;;;7.10;5.50;;;7.00;99.90;;;;;;5033667;28;20558;-68
2021/01/28 11:43:25;;;;;;;7.37;5.90;;;7.10;99.90;;;;;;5033631;28;20175;-67
2021/01/28 11:45:50;;;;;;;5.20;4.70;;;7.10;99.90;;;;;;5032026;28;20180;-64
2021/01/28 11:48:16;;;;;;;6.23;5.20;;;7.20;99.90;;;;;;5033529;28;20267;-65
2021/01/28 11:50:42;;;;;;;7.23;5.50;;;7.30;99.90;;;;;;5033078;28;20204;-67
2021/01/28 11:53:07;;;;;;;4.83;4.30;;;7.40;99.90;;;;;;5033405;28;20176;-64
2021/01/28 11:55:34;;;;;;;4.03;3.60;;;7.50;99.90;;;;;;5033800;28;20215;-64
2021/01/28 11:58:00;;;;;;;3.03;2.73;;;7.70;99.90;;;;;;5033058;28;20204;-68
2021/01/28 12:00:27;;;;;;;3.60;3.03;;;7.80;99.90;;;;;;5031650;28;20454;-64
2021/01/28 12:02:53;;;;;;;3.33;3.03;;;7.90;99.90;;;;;;5032113;28;20576;-65
2021/01/28 12:05:22;;;;;;;4.00;3.20;;;8.00;99.90;;;;;;5015451;28;20426;-67
2021/01/28 12:07:49;;;;;;;2.47;2.27;;;8.10;99.90;;;;;;5032967;28;20184;-68
2021/01/28 12:10:16;;;;;;;2.63;2.33;;;8.20;99.90;;;;;;5032753;28;20866;-65
2021/01/28 12:12:43;;;;;;;5.20;2.40;;;8.30;99.90;;;;;;5032999;28;20896;-68
2021/01/28 12:15:09;;;;;;;2.60;2.30;;;8.30;99.90;;;;;;5032777;28;20502;-66
2021/01/28 12:17:36;;;;;;;3.63;1.90;;;8.40;99.90;;;;;;5033029;28;20410;-67
2021/01/28 12:20:04;;;;;;;2.10;1.80;;;8.60;99.90;;;;;;5032628;28;20427;-65
2021/01/28 12:22:29;;;;;;;2.57;1.80;;;8.80;99.90;;;;;;5032723;28;20418;-65
2021/01/28 12:24:55;;;;;;;2.00;1.57;;;8.80;99.90;;;;;;5032871;28;20472;-68
2021/01/28 12:27:21;;;;;;;2.63;2.10;;;8.90;99.90;;;;;;5032416;28;20172;-66
2021/01/28 12:29:46;;;;;;;3.10;1.77;;;8.90;99.90;;;;;;5032688;28;20204;-69
2021/01/28 12:32:12;;;;;;;2.30;1.20;;;9.00;99.90;;;;;;5032634;28;20176;-68
2021/01/28 12:34:39;;;;;;;0.30;0.30;;;9.90;99.90;;;;;;5032726;28;20510;-65
2021/01/28 12:37:07;;;;;;;1.67;0.50;;;9.60;99.90;;;;;;5032630;28;20180;-68
2021/01/28 12:39:34;;;;;;;0.50;0.40;;;9.70;99.90;;;;;;5032417;28;20426;-65
2021/01/28 12:42:00;;;;;;;0.73;0.40;;;10.10;99.90;;;;;;5014421;28;20422;-68
2021/01/28 12:44:26;;;;;;;0.67;0.40;;;10.20;99.90;;;;;;5032346;28;20414;-66
2021/01/28 12:46:51;;;;;;;0.30;0.30;;;10.30;99.90;;;;;;5032509;28;20406;-63
2021/01/28 12:49:17;;;;;;;0.57;0.40;;;10.50;99.90;;;;;;5032102;28;20646;-66
2021/01/28 12:51:43;;;;;;;0.27;0.27;;;10.60;99.90;;;;;;5032419;28;20230;-66
2021/01/28 12:54:09;;;;;;;1.67;0.40;;;10.70;99.90;;;;;;5032362;28;20259;-65
2021/01/28 12:56:34;;;;;;;0.20;0.20;;;10.80;99.90;;;;;;5032213;28;20307;-65
2021/01/28 12:59:00;;;;;;;0.30;0.30;;;11.00;99.90;;;;;;5032173;28;20613;-68
2021/01/28 13:01:26;;;;;;;0.60;0.33;;;11.00;99.90;;;;;;5032141;28;20180;-65
2021/01/28 13:03:52;;;;;;;0.43;0.40;;;11.10;99.90;;;;;;5032140;28;20600;-66
2021/01/28 13:06:18;;;;;;;0.30;0.30;;;11.10;99.90;;;;;;5032287;28;20623;-64
2021/01/28 13:08:44;;;;;;;1.13;0.40;;;11.20;99.90;;;;;;5031795;28;20218;-67